Time;durP1;ratioP1;P1;durP2;ratioP2;P2;SDS_P1;SDS_P2;PMS_P1;PMS_P2;Temp;Humidity;BMP_temperature;BMP_pressure;BME280_temperature;BME280_humidity;BME280_pressure;Samples;Min_cycle;Max_cycle;Signal;HPM_P1;HPM_P2
2023/05/30 00:01:38;;;;;;;17.95;5.22;;;10.60;99.90;;;;;;5076412;28;20048;-36
2023/05/30 00:04:04;;;;;;;16.52;6.05;;;10.60;99.90;;;;;;5075978;28;20306;-40
2023/05/30 00:06:30;;;;;;;20.45;5.45;;;10.60;99.90;;;;;;5075828;28;20040;-36
2023/05/30 00:08:56;;;;;;;12.20;4.90;;;10.50;99.90;;;;;;5073442;28;20048;-38
2023/05/30 00:11:23;;;;;;;12.93;5.28;;;10.50;99.90;;;;;;5075983;28;20048;-39
2023/05/30 00:13:50;;;;;;;12.63;5.25;;;10.50;99.90;;;;;;5074973;28;20052;-38
2023/05/30 00:16:19;;;;;;;15.88;5.32;;;10.60;99.90;;;;;;5075491;28;20076;-40
2023/05/30 00:18:45;;;;;;;13.40;4.50;;;10.50;99.90;;;;;;5074849;28;20563;-40
2023/05/30 00:21:11;;;;;;;13.85;5.05;;;10.50;99.90;;;;;;5074324;28;20063;-40
2023/05/30 00:23:39;;;;;;;15.52;5.20;;;10.50;99.90;;;;;;5075476;28;20459;-38
2023/05/30 00:26:08;;;;;;;11.23;4.50;;;10.50;99.90;;;;;;5075781;28;20329;-40
2023/05/30 00:28:36;;;;;;;11.45;4.70;;;10.50;99.90;;;;;;5074947;28;20081;-36
2023/05/30 00:31:02;;;;;;;13.98;4.47;;;10.50;99.90;;;;;;5075217;28;20739;-39
2023/05/30 00:33:27;;;;;;;10.65;5.18;;;10.50;99.90;;;;;;5073605;28;20040;-39
2023/05/30 00:35:53;;;;;;;13.63;5.00;;;10.50;99.90;;;;;;5060115;28;20362;-35
2023/05/30 00:38:19;;;;;;;17.35;5.95;;;10.50;99.90;;;;;;5060278;28;20040;-40
2023/05/30 00:40:45;;;;;;;15.98;4.97;;;10.50;99.90;;;;;;5076320;28;20411;-36
2023/05/30 00:43:10;;;;;;;13.32;5.35;;;10.50;99.90;;;;;;5068731;28;20044;-43
2023/05/30 00:45:36;;;;;;;13.40;5.13;;;10.50;99.90;;;;;;5075130;28;20524;-37
2023/05/30 00:48:04;;;;;;;13.85;5.43;;;10.50;99.90;;;;;;5073185;28;20074;-37
2023/05/30 00:50:32;;;;;;;15.13;5.82;;;10.50;99.90;;;;;;5067100;28;20147;-36
2023/05/30 00:52:59;;;;;;;15.30;5.47;;;10.60;99.90;;;;;;5074840;28;20040;-36
2023/05/30 00:55:27;;;;;;;13.50;5.50;;;10.60;99.90;;;;;;5074587;28;20076;-40
2023/05/30 00:57:53;;;;;;;19.10;6.28;;;10.60;99.90;;;;;;5074529;28;20044;-39
2023/05/30 01:00:19;;;;;;;12.75;5.43;;;10.50;99.90;;;;;;5073922;28;20453;-39
2023/05/30 01:02:47;;;;;;;12.82;5.82;;;10.50;99.90;;;;;;5075375;28;20048;-41
2023/05/30 01:05:14;;;;;;;15.18;5.63;;;10.50;99.90;;;;;;5075047;28;20043;-36
2023/05/30 01:07:43;;;;;;;14.70;5.53;;;10.50;99.90;;;;;;5074656;28;20571;-39
2023/05/30 01:10:11;;;;;;;11.00;6.10;;;10.50;99.90;;;;;;5075507;28;20048;-39
2023/05/30 01:12:45;;;;;;;17.23;5.95;;;10.50;99.90;;;;;;5074732;28;20117;-37
2023/05/30 01:15:14;;;;;;;17.58;5.82;;;10.40;99.90;;;;;;5073265;28;20123;-37
2023/05/30 01:18:01;;;;;;;11.88;6.00;;;10.40;99.90;;;;;;5074294;28;20048;-42
2023/05/30 01:20:30;;;;;;;15.27;5.72;;;10.40;99.90;;;;;;5073901;28;20052;-39
2023/05/30 01:23:14;;;;;;;12.23;5.53;;;10.40;99.90;;;;;;5074571;28;20039;-37
2023/05/30 01:26:05;;;;;;;13.25;5.60;;;10.40;99.90;;;;;;5073647;28;20040;-40
2023/05/30 01:28:36;;;;;;;17.05;6.10;;;10.40;99.90;;;;;;5073802;28;20520;-37
2023/05/30 01:31:02;;;;;;;20.30;6.70;;;10.40;99.90;;;;;;5074565;28;20054;-38
2023/05/30 01:33:30;;;;;;;10.68;5.43;;;10.40;99.90;;;;;;5074056;28;20047;-40
2023/05/30 01:35:56;;;;;;;14.63;5.47;;;10.40;99.90;;;;;;5073573;28;20076;-39
2023/05/30 01:38:22;;;;;;;14.52;5.80;;;10.40;99.90;;;;;;5058227;28;20123;-37
2023/05/30 01:40:50;;;;;;;9.55;5.07;;;10.40;99.90;;;;;;5073711;28;20105;-40
2023/05/30 01:43:27;;;;;;;10.27;4.55;;;10.40;99.90;;;;;;5066538;28;20055;-41
2023/05/30 01:46:01;;;;;;;15.93;5.10;;;10.50;99.90;;;;;;5073990;28;20421;-36
2023/05/30 01:48:46;;;;;;;16.63;5.93;;;10.50;99.90;;;;;;5073484;28;20107;-36
2023/05/30 01:51:16;;;;;;;21.95;6.18;;;10.50;99.90;;;;;;5069205;28;20071;-37
2023/05/30 01:53:58;;;;;;;12.98;5.25;;;10.50;99.90;;;;;;5073569;28;20048;-39
2023/05/30 01:56:27;;;;;;;18.55;5.28;;;10.40;99.90;;;;;;5073898;28;20048;-36
2023/05/30 01:58:54;;;;;;;10.80;4.38;;;10.40;99.90;;;;;;5073334;28;20119;-38
2023/05/30 02:01:23;;;;;;;15.15;4.93;;;10.40;99.90;;;;;;5064458;28;20507;-42
2023/05/30 02:03:49;;;;;;;14.82;5.20;;;10.40;99.90;;;;;;5064614;28;20044;-37
2023/05/30 02:06:15;;;;;;;14.77;5.13;;;10.40;99.90;;;;;;5072039;28;20048;-36
2023/05/30 02:08:40;;;;;;;11.00;4.20;;;10.40;99.90;;;;;;5073315;28;20051;-39
2023/05/30 02:11:06;;;;;;;10.95;5.30;;;10.40;99.90;;;;;;5073902;28;20040;-41
2023/05/30 02:13:32;;;;;;;15.38;5.00;;;10.40;99.90;;;;;;5071152;28;20044;-44
2023/05/30 02:15:58;;;;;;;12.20;4.53;;;10.40;99.90;;;;;;5055514;28;20044;-40
2023/05/30 02:18:27;;;;;;;10.90;4.57;;;10.40;99.90;;;;;;5064157;28;20427;-40
2023/05/30 02:20:54;;;;;;;14.77;6.22;;;10.40;99.90;;;;;;5099923;27;20048;-37
2023/05/30 02:23:20;;;;;;;14.85;5.00;;;10.50;99.90;;;;;;5066397;28;20078;-40
2023/05/30 02:25:46;;;;;;;14.07;5.38;;;10.50;99.90;;;;;;5072758;28;20123;-40
2023/05/30 02:28:11;;;;;;;11.35;4.47;;;10.40;99.90;;;;;;5073589;28;20459;-39
2023/05/30 02:30:38;;;;;;;14.85;5.95;;;10.40;99.90;;;;;;5073664;28;20087;-36
2023/05/30 02:33:03;;;;;;;15.48;5.47;;;10.40;99.90;;;;;;5073445;28;20040;-40
2023/05/30 02:35:29;;;;;;;17.25;4.72;;;10.40;99.90;;;;;;5072605;28;20055;-39
2023/05/30 02:37:55;;;;;;;16.58;5.80;;;10.40;99.90;;;;;;5059617;28;20119;-39
2023/05/30 02:40:21;;;;;;;11.80;5.97;;;10.40;99.90;;;;;;5071866;28;20074;-36
2023/05/30 02:42:47;;;;;;;13.70;5.97;;;10.40;99.90;;;;;;5067713;28;20486;-40
2023/05/30 02:45:12;;;;;;;15.98;4.88;;;10.40;99.90;;;;;;5071726;28;20158;-40
2023/05/30 02:47:39;;;;;;;10.45;4.97;;;10.40;99.90;;;;;;5073414;28;20133;-35
2023/05/30 02:50:06;;;;;;;13.85;5.85;;;10.40;99.90;;;;;;5066999;28;20162;-39
2023/05/30 02:52:32;;;;;;;13.27;4.82;;;10.40;99.90;;;;;;5071535;28;20466;-39
2023/05/30 02:54:57;;;;;;;13.60;5.47;;;10.40;99.90;;;;;;5072249;28;20090;-38
2023/05/30 02:57:23;;;;;;;13.13;5.20;;;10.40;99.90;;;;;;5072704;28;20036;-39
2023/05/30 02:59:48;;;;;;;15.00;5.22;;;10.40;99.90;;;;;;5073223;28;20036;-35
2023/05/30 03:02:15;;;;;;;12.90;5.72;;;10.40;99.90;;;;;;5074153;28;20491;-36
2023/05/30 03:04:45;;;;;;;11.93;4.80;;;10.40;99.90;;;;;;5072972;28;20098;-42
2023/05/30 03:07:17;;;;;;;14.70;5.60;;;10.50;99.90;;;;;;5073250;28;20048;-38
2023/05/30 03:09:43;;;;;;;16.38;5.22;;;10.50;99.90;;;;;;5073218;28;20048;-37
2023/05/30 03:12:09;;;;;;;15.30;6.07;;;10.50;99.90;;;;;;5073100;28;20066;-39
2023/05/30 03:14:35;;;;;;;16.00;5.43;;;10.50;99.90;;;;;;5072934;28;20049;-41
2023/05/30 03:17:02;;;;;;;12.88;5.43;;;10.50;99.90;;;;;;5072728;28;20044;-37
2023/05/30 03:19:28;;;;;;;18.55;5.72;;;10.50;99.90;;;;;;5073398;28;20415;-35
2023/05/30 03:21:54;;;;;;;16.50;5.57;;;10.50;99.90;;;;;;5072859;28;20052;-38
2023/05/30 03:24:20;;;;;;;15.63;5.63;;;10.50;99.90;;;;;;5072830;28;20044;-37
2023/05/30 03:26:45;;;;;;;18.08;6.18;;;10.50;99.90;;;;;;5070970;28;20420;-40
2023/05/30 03:29:11;;;;;;;19.50;6.72;;;10.60;99.90;;;;;;5074253;28;20044;-37
2023/05/30 03:31:37;;;;;;;17.75;6.18;;;10.50;99.90;;;;;;5073775;28;20040;-40
2023/05/30 03:34:02;;;;;;;18.50;6.15;;;10.50;99.90;;;;;;5071410;28;20396;-40
2023/05/30 03:36:28;;;;;;;17.30;6.07;;;10.50;99.90;;;;;;5067255;28;20041;-36
2023/05/30 03:38:54;;;;;;;17.58;6.05;;;10.60;99.90;;;;;;5061362;28;20085;-36
2023/05/30 03:41:21;;;;;;;18.40;7.57;;;10.60;99.90;;;;;;5072689;28;20036;-37
2023/05/30 03:43:46;;;;;;;15.40;6.18;;;10.60;99.90;;;;;;5066974;28;20362;-41
2023/05/30 03:46:15;;;;;;;14.65;5.93;;;10.60;99.90;;;;;;5077123;28;20036;-40
2023/05/30 03:48:42;;;;;;;17.92;5.90;;;10.70;99.90;;;;;;5075195;28;20507;-38
2023/05/30 03:51:07;;;;;;;23.85;6.65;;;10.70;99.90;;;;;;5070840;28;20098;-42
2023/05/30 03:53:33;;;;;;;19.38;6.47;;;10.70;99.90;;;;;;5075897;28;20462;-36
2023/05/30 03:55:59;;;;;;;18.17;6.25;;;10.70;99.90;;;;;;5074807;28;20430;-39
2023/05/30 03:58:25;;;;;;;16.30;6.10;;;10.70;99.90;;;;;;5076081;28;20411;-40
2023/05/30 04:00:50;;;;;;;25.42;7.45;;;10.80;99.90;;;;;;5073654;28;20641;-36
2023/05/30 04:03:19;;;;;;;21.15;6.57;;;10.80;99.90;;;;;;5074148;28;20040;-39
2023/05/30 04:05:47;;;;;;;20.63;6.88;;;10.90;99.90;;;;;;5075007;28;20057;-42
2023/05/30 04:08:13;;;;;;;23.63;7.30;;;10.90;99.90;;;;;;5076434;28;20040;-41
2023/05/30 04:10:39;;;;;;;16.98;6.55;;;10.90;99.90;;;;;;5074152;28;20044;-39
2023/05/30 04:13:05;;;;;;;14.88;6.00;;;10.90;99.90;;;;;;5076713;28;20120;-38
2023/05/30 04:15:31;;;;;;;15.35;6.68;;;10.90;99.90;;;;;;5056866;28;20040;-39
2023/05/30 04:17:57;;;;;;;22.17;7.05;;;10.90;99.90;;;;;;5063983;28;20539;-39
2023/05/30 04:20:24;;;;;;;15.75;5.72;;;11.00;99.90;;;;;;5075611;28;20052;-41
2023/05/30 04:22:50;;;;;;;18.02;6.28;;;11.00;99.90;;;;;;5075458;28;20076;-39
2023/05/30 04:25:17;;;;;;;15.20;6.22;;;11.10;99.90;;;;;;5074229;28;20047;-39
2023/05/30 04:27:43;;;;;;;20.48;5.65;;;11.10;99.90;;;;;;5075169;28;20044;-37
2023/05/30 04:30:10;;;;;;;13.63;5.97;;;11.10;99.90;;;;;;5075391;28;20052;-41
2023/05/30 04:32:36;;;;;;;16.40;5.13;;;11.20;99.90;;;;;;5075565;28;20496;-36
2023/05/30 04:35:07;;;;;;;20.75;6.43;;;11.30;99.90;;;;;;5074818;28;20128;-41
2023/05/30 04:37:38;;;;;;;14.68;5.68;;;11.30;99.90;;;;;;5063473;28;20047;-41
2023/05/30 04:40:08;;;;;;;15.48;5.15;;;11.40;99.90;;;;;;5071846;28;20563;-39
2023/05/30 04:42:34;;;;;;;19.02;5.80;;;11.40;99.90;;;;;;5069847;28;20519;-42
2023/05/30 04:45:00;;;;;;;15.50;6.07;;;11.40;99.90;;;;;;5071185;28;20044;-38
2023/05/30 04:47:28;;;;;;;18.80;6.13;;;11.40;99.90;;;;;;5074334;28;20052;-40
2023/05/30 04:49:54;;;;;;;16.73;5.60;;;11.40;99.90;;;;;;5069077;28;20570;-38
2023/05/30 04:52:20;;;;;;;14.70;5.60;;;11.40;99.90;;;;;;5075217;28;20123;-40
2023/05/30 04:54:46;;;;;;;17.75;5.60;;;11.50;99.90;;;;;;5073999;28;20056;-38
2023/05/30 04:57:12;;;;;;;14.38;5.10;;;11.50;99.90;;;;;;5073430;28;20060;-38
2023/05/30 04:59:39;;;;;;;15.38;5.60;;;11.60;99.90;;;;;;5075548;28;20047;-37
2023/05/30 05:02:05;;;;;;;14.10;5.13;;;11.60;99.90;;;;;;5075563;28;20892;-36
2023/05/30 05:04:31;;;;;;;14.93;5.00;;;11.70;99.90;;;;;;5074308;28;20044;-38
2023/05/30 05:06:57;;;;;;;18.95;5.43;;;11.70;99.90;;;;;;5074401;28;20864;-36
2023/05/30 05:09:24;;;;;;;16.70;5.72;;;11.70;99.90;;;;;;5074804;28;20070;-39
2023/05/30 05:11:53;;;;;;;18.13;5.93;;;11.80;99.90;;;;;;5072504;28;20040;-38
2023/05/30 05:14:19;;;;;;;17.83;7.22;;;11.80;99.90;;;;;;5073854;28;20277;-38
2023/05/30 05:16:45;;;;;;;16.50;6.53;;;11.70;99.90;;;;;;5074486;28;20173;-43
2023/05/30 05:19:10;;;;;;;15.82;6.00;;;11.70;99.90;;;;;;5073837;28;20070;-42
2023/05/30 05:21:36;;;;;;;14.43;6.07;;;11.80;99.90;;;;;;5074606;28;20499;-39
2023/05/30 05:24:03;;;;;;;15.35;5.28;;;11.80;99.90;;;;;;5074194;28;20110;-40
2023/05/30 05:26:29;;;;;;;16.30;6.13;;;11.80;99.90;;;;;;5073226;28;20040;-38
2023/05/30 05:28:56;;;;;;;12.52;5.15;;;11.80;99.90;;;;;;5073519;28;20080;-40
2023/05/30 05:31:22;;;;;;;13.45;5.28;;;11.80;99.90;;;;;;5074233;28;20376;-36
2023/05/30 05:33:48;;;;;;;14.30;5.38;;;11.80;99.90;;;;;;5072956;28;20399;-38
2023/05/30 05:36:14;;;;;;;14.85;5.35;;;11.80;99.90;;;;;;5071406;28;20040;-37
2023/05/30 05:38:40;;;;;;;16.27;5.53;;;11.80;99.90;;;;;;5059173;28;20074;-41
2023/05/30 05:41:05;;;;;;;19.02;5.18;;;11.80;99.90;;;;;;5074009;28;20044;-38
2023/05/30 05:43:31;;;;;;;16.52;5.35;;;11.70;99.90;;;;;;5065457;28;20135;-38
2023/05/30 05:45:57;;;;;;;18.13;5.72;;;11.70;99.90;;;;;;5073890;28;20140;-39
2023/05/30 05:48:22;;;;;;;14.32;4.88;;;11.60;99.90;;;;;;5073458;28;20174;-41
2023/05/30 05:50:48;;;;;;;14.13;5.25;;;11.60;99.90;;;;;;5068213;28;20059;-36
2023/05/30 05:53:14;;;;;;;11.52;4.68;;;11.60;99.90;;;;;;5074005;28;20081;-37
2023/05/30 05:55:39;;;;;;;14.57;6.05;;;11.60;99.90;;;;;;5074287;28;20051;-40
2023/05/30 05:58:05;;;;;;;13.52;5.75;;;11.60;99.90;;;;;;5073431;28;20132;-38
2023/05/30 06:00:32;;;;;;;11.60;5.75;;;11.60;99.90;;;;;;5072410;28;20074;-37
2023/05/30 06:02:58;;;;;;;13.05;5.10;;;11.70;99.90;;;;;;5071891;28;20056;-38
2023/05/30 06:05:24;;;;;;;12.27;4.95;;;11.60;99.90;;;;;;5073928;28;20403;-39
2023/05/30 06:07:50;;;;;;;12.60;4.45;;;11.60;99.90;;;;;;5072884;28;20048;-39
2023/05/30 06:10:16;;;;;;;15.70;5.15;;;11.70;99.90;;;;;;5073635;28;20510;-39
2023/05/30 06:12:42;;;;;;;6.78;3.08;;;11.70;99.90;;;;;;5073508;28;20278;-36
2023/05/30 06:15:08;;;;;;;12.45;4.07;;;11.70;99.90;;;;;;5071769;28;20109;-40
2023/05/30 06:17:34;;;;;;;12.30;3.80;;;11.70;99.90;;;;;;5058374;28;20126;-36
2023/05/30 06:19:59;;;;;;;7.72;3.38;;;11.80;99.90;;;;;;5062525;28;20060;-37
2023/05/30 06:22:25;;;;;;;10.43;3.63;;;11.80;99.90;;;;;;5058283;28;20465;-40
2023/05/30 06:24:51;;;;;;;9.07;3.58;;;11.90;99.90;;;;;;5072161;28;20428;-36
2023/05/30 06:27:16;;;;;;;10.73;3.65;;;11.90;99.90;;;;;;5072362;28;20147;-39
2023/05/30 06:29:42;;;;;;;15.30;4.50;;;11.90;99.90;;;;;;5061667;28;20050;-38
2023/05/30 06:32:08;;;;;;;36.15;4.65;;;12.00;99.90;;;;;;5067057;28;20049;-39
2023/05/30 06:34:34;;;;;;;16.55;4.60;;;12.10;99.90;;;;;;5064732;28;20072;-37
2023/05/30 06:37:00;;;;;;;12.48;3.60;;;12.10;99.90;;;;;;5066677;28;20345;-37
2023/05/30 06:39:27;;;;;;;9.60;3.92;;;12.10;99.90;;;;;;5066119;28;20955;-39
2023/05/30 06:41:56;;;;;;;10.77;3.72;;;12.10;99.90;;;;;;5072786;28;20079;-39
2023/05/30 06:44:21;;;;;;;11.77;3.80;;;12.20;99.90;;;;;;5061340;28;20473;-38
2023/05/30 06:46:47;;;;;;;11.90;4.32;;;12.20;99.90;;;;;;5071340;28;20048;-40
2023/05/30 06:49:13;;;;;;;12.00;3.92;;;12.10;99.90;;;;;;5071650;28;20052;-39
2023/05/30 06:51:38;;;;;;;11.52;4.40;;;12.10;99.90;;;;;;5073047;28;20508;-39
2023/05/30 06:54:04;;;;;;;12.00;3.90;;;12.20;99.90;;;;;;5070345;28;20048;-37
2023/05/30 06:56:30;;;;;;;14.60;4.90;;;12.20;99.90;;;;;;5072173;28;20473;-40
2023/05/30 06:58:56;;;;;;;11.00;3.55;;;12.30;99.90;;;;;;5072627;28;20114;-39
2023/05/30 07:01:21;;;;;;;11.00;4.20;;;12.20;99.90;;;;;;5072335;28;20051;-38
2023/05/30 07:03:47;;;;;;;7.88;3.10;;;12.20;99.90;;;;;;5054760;28;20221;-39
2023/05/30 07:06:12;;;;;;;8.32;3.20;;;12.20;99.90;;;;;;5056574;28;20032;-41
2023/05/30 07:08:38;;;;;;;11.07;4.30;;;12.20;99.90;;;;;;5067889;28;20449;-36
2023/05/30 07:11:06;;;;;;;7.78;3.42;;;12.20;99.90;;;;;;5072054;28;20032;-36
2023/05/30 07:13:31;;;;;;;14.15;3.92;;;12.20;99.90;;;;;;5071199;28;20085;-37
2023/05/30 07:15:57;;;;;;;9.68;3.50;;;12.20;99.90;;;;;;5068994;28;20452;-41
2023/05/30 07:18:23;;;;;;;10.73;4.47;;;12.10;99.90;;;;;;5070890;28;20109;-39
2023/05/30 07:20:48;;;;;;;10.85;3.22;;;12.00;99.90;;;;;;5075619;28;20106;-37
2023/05/30 07:23:15;;;;;;;6.00;2.90;;;12.10;99.90;;;;;;5076191;28;20634;-37
2023/05/30 07:25:41;;;;;;;8.07;3.58;;;12.20;99.90;;;;;;5076844;28;20040;-40
2023/05/30 07:28:07;;;;;;;12.88;4.03;;;12.20;99.90;;;;;;5076257;28;20055;-41
2023/05/30 07:30:32;;;;;;;8.40;2.97;;;12.30;99.90;;;;;;5076079;28;20044;-37
2023/05/30 07:32:58;;;;;;;7.43;3.30;;;12.20;99.90;;;;;;5075884;28;20105;-39
2023/05/30 07:35:24;;;;;;;9.18;2.97;;;12.30;99.90;;;;;;5076557;28;20488;-37
2023/05/30 07:37:52;;;;;;;5.43;2.90;;;12.30;99.90;;;;;;5063757;28;20076;-39
2023/05/30 07:40:18;;;;;;;8.48;3.70;;;12.30;99.90;;;;;;5074854;28;20085;-39
2023/05/30 07:42:45;;;;;;;6.15;3.08;;;12.40;99.90;;;;;;5071217;28;20048;-39
2023/05/30 07:45:10;;;;;;;7.68;3.90;;;12.30;99.90;;;;;;5072412;28;20559;-40
2023/05/30 07:47:36;;;;;;;8.70;3.22;;;12.40;99.90;;;;;;5075800;28;20121;-42
2023/05/30 07:50:02;;;;;;;11.02;3.90;;;12.30;99.90;;;;;;5070417;28;20044;-37
2023/05/30 07:52:27;;;;;;;11.77;3.97;;;12.30;99.90;;;;;;5074375;28;20059;-41
2023/05/30 07:54:53;;;;;;;9.48;4.07;;;12.20;99.90;;;;;;5074914;28;20056;-39
2023/05/30 07:57:19;;;;;;;13.77;4.95;;;12.20;99.90;;;;;;5075027;28;20079;-39
2023/05/30 07:59:44;;;;;;;6.10;3.67;;;12.30;99.90;;;;;;5075376;28;20059;-39
2023/05/30 08:02:10;;;;;;;6.88;3.08;;;12.40;99.90;;;;;;5076470;28;20147;-40
2023/05/30 08:04:37;;;;;;;6.13;3.53;;;12.30;99.90;;;;;;5073502;28;20391;-40
2023/05/30 08:07:03;;;;;;;6.30;3.03;;;12.40;99.90;;;;;;5074658;28;20465;-40
2023/05/30 08:09:29;;;;;;;7.68;3.28;;;12.50;99.90;;;;;;5064121;28;20131;-39
2023/05/30 08:11:55;;;;;;;6.35;3.28;;;12.60;99.90;;;;;;5073536;28;20075;-36
2023/05/30 08:14:21;;;;;;;7.32;3.35;;;12.80;99.90;;;;;;5068399;28;20123;-38
2023/05/30 08:16:46;;;;;;;7.07;2.42;;;12.80;99.90;;;;;;5068460;28;20327;-36
2023/05/30 08:19:12;;;;;;;5.60;2.90;;;12.80;99.90;;;;;;5074759;28;20400;-40
2023/05/30 08:21:38;;;;;;;6.28;2.67;;;12.90;99.90;;;;;;5071229;28;20139;-41
2023/05/30 08:24:04;;;;;;;6.18;2.85;;;13.00;99.90;;;;;;5073400;28;20055;-37
2023/05/30 08:26:30;;;;;;;7.05;3.00;;;13.10;99.90;;;;;;5073291;28;20055;-38
2023/05/30 08:28:59;;;;;;;6.45;2.88;;;13.20;99.90;;;;;;5072452;28;20566;-40
2023/05/30 08:31:25;;;;;;;6.10;2.75;;;13.20;99.90;;;;;;5073774;28;20126;-38
2023/05/30 08:33:50;;;;;;;5.13;3.00;;;13.40;99.90;;;;;;5061547;28;20040;-36
2023/05/30 08:36:16;;;;;;;6.93;3.00;;;13.50;99.90;;;;;;5062408;28;20105;-40
2023/05/30 08:38:42;;;;;;;4.25;2.55;;;13.30;99.90;;;;;;5066451;28;20473;-42
2023/05/30 08:41:07;;;;;;;7.70;2.90;;;13.00;99.90;;;;;;5088637;27;20050;-38
2023/05/30 08:43:33;;;;;;;7.57;3.33;;;13.00;99.90;;;;;;5070805;28;20499;-38
2023/05/30 08:46:00;;;;;;;5.10;2.70;;;13.00;99.90;;;;;;5068763;28;20044;-36
2023/05/30 08:48:31;;;;;;;8.77;2.60;;;13.10;99.90;;;;;;5061454;28;20056;-41
2023/05/30 08:50:57;;;;;;;5.25;2.47;;;13.10;99.90;;;;;;5066424;28;20044;-38
2023/05/30 08:53:32;;;;;;;5.70;2.90;;;13.30;99.90;;;;;;5074806;28;20126;-41
2023/05/30 08:56:22;;;;;;;4.90;2.38;;;13.50;99.90;;;;;;5067813;28;20040;-37
2023/05/30 08:58:50;;;;;;;4.68;2.38;;;13.80;99.90;;;;;;5066514;28;20439;-38
2023/05/30 09:01:17;;;;;;;4.25;2.67;;;13.90;99.90;;;;;;5071436;28;20055;-44
2023/05/30 09:03:45;;;;;;;4.60;2.67;;;14.10;99.90;;;;;;5073962;28;20054;-40
2023/05/30 09:06:14;;;;;;;5.82;2.67;;;14.20;99.90;;;;;;5074033;28;20067;-38
2023/05/30 09:08:44;;;;;;;6.68;2.70;;;14.30;99.90;;;;;;5073363;28;20088;-41
2023/05/30 09:11:10;;;;;;;5.85;2.30;;;14.30;99.90;;;;;;5068595;28;20075;-42
2023/05/30 09:13:35;;;;;;;5.55;2.92;;;14.40;99.90;;;;;;5070546;28;20443;-40
2023/05/30 09:16:01;;;;;;;6.57;3.42;;;14.40;99.90;;;;;;5070991;28;20058;-37
2023/05/30 09:18:34;;;;;;;5.15;2.45;;;14.40;99.90;;;;;;5076905;28;20385;-39
2023/05/30 09:21:01;;;;;;;5.55;3.25;;;14.40;99.90;;;;;;5087886;28;20508;-38
2023/05/30 09:23:27;;;;;;;3.80;2.65;;;14.40;99.90;;;;;;5088653;28;20051;-43
2023/05/30 09:25:53;;;;;;;3.10;2.15;;;14.40;99.90;;;;;;5077965;28;20169;-42
2023/05/30 09:28:26;;;;;;;4.32;2.70;;;14.20;99.90;;;;;;5072618;28;20152;-36
2023/05/30 09:30:59;;;;;;;2.95;1.80;;;14.10;99.90;;;;;;5065257;28;20422;-37
2023/05/30 09:33:50;;;;;;;3.58;1.77;;;14.20;99.90;;;;;;5070563;28;20051;-38
2023/05/30 09:36:20;;;;;;;1.83;1.30;;;14.40;99.90;;;;;;5069283;28;20422;-41
2023/05/30 09:39:06;;;;;;;3.97;1.60;;;14.70;99.90;;;;;;5061532;28;20040;-42
2023/05/30 09:41:33;;;;;;;3.40;1.35;;;15.10;99.90;;;;;;5091942;27;20060;-40
2023/05/30 09:43:59;;;;;;;1.85;1.15;;;15.60;99.90;;;;;;5070721;28;20056;-41
2023/05/30 09:46:28;;;;;;;3.05;1.30;;;15.90;99.90;;;;;;5073026;28;20048;-40
2023/05/30 09:48:55;;;;;;;4.18;1.40;;;16.50;99.90;;;;;;5072454;28;20116;-38
2023/05/30 09:51:22;;;;;;;4.55;1.50;;;16.70;99.90;;;;;;5067638;28;20545;-36
2023/05/30 09:54:03;;;;;;;3.38;1.38;;;16.70;99.90;;;;;;5073021;28;20048;-40
2023/05/30 09:56:36;;;;;;;2.80;1.40;;;16.00;99.90;;;;;;5073056;28;20054;-37
2023/05/30 09:59:07;;;;;;;4.20;2.08;;;15.80;99.90;;;;;;5074256;28;20074;-40
2023/05/30 10:01:48;;;;;;;2.67;1.75;;;15.20;99.90;;;;;;5072251;28;20066;-41
2023/05/30 10:04:22;;;;;;;3.83;1.55;;;14.70;99.90;;;;;;5071942;28;20537;-38
2023/05/30 10:06:51;;;;;;;2.28;1.60;;;14.70;99.90;;;;;;5072689;28;20185;-39
2023/05/30 10:09:20;;;;;;;4.07;1.60;;;14.90;99.90;;;;;;5073145;28;20079;-41
2023/05/30 10:11:46;;;;;;;3.58;1.67;;;14.90;99.90;;;;;;5073291;28;20051;-43
2023/05/30 10:14:12;;;;;;;1.70;1.40;;;14.90;99.90;;;;;;5072986;28;20048;-40
2023/05/30 10:16:53;;;;;;;2.42;1.65;;;15.00;99.90;;;;;;5072798;28;20129;-41
2023/05/30 10:19:25;;;;;;;2.75;1.30;;;15.10;99.90;;;;;;5073250;28;20052;-40
2023/05/30 10:21:54;;;;;;;4.40;2.00;;;15.10;99.90;;;;;;5073547;28;20052;-41
2023/05/30 10:24:20;;;;;;;2.00;1.40;;;14.90;99.90;;;;;;5072013;28;20282;-38
2023/05/30 10:26:56;;;;;;;3.10;1.50;;;14.60;99.90;;;;;;5070907;28;20052;-42
2023/05/30 10:29:25;;;;;;;5.22;1.73;;;14.70;99.90;;;;;;5073727;28;20076;-39
2023/05/30 10:31:53;;;;;;;3.50;1.65;;;14.70;99.90;;;;;;5072571;28;20051;-41
2023/05/30 10:34:26;;;;;;;1.77;1.30;;;14.40;99.90;;;;;;5072225;28;20044;-39
2023/05/30 10:36:53;;;;;;;3.70;1.70;;;14.40;99.90;;;;;;5050484;28;20068;-40
2023/05/30 10:39:32;;;;;;;2.15;1.60;;;14.30;99.90;;;;;;5062780;28;20466;-37
2023/05/30 10:42:06;;;;;;;3.60;1.63;;;14.40;99.90;;;;;;5073200;28;20443;-42
2023/05/30 10:44:40;;;;;;;1.92;1.75;;;14.50;99.90;;;;;;5064960;28;20056;-39
2023/05/30 10:47:36;;;;;;;2.40;1.70;;;14.60;99.90;;;;;;5060165;28;20056;-38
2023/05/30 10:50:07;;;;;;;2.55;1.60;;;15.00;99.90;;;;;;5067931;28;20381;-39
2023/05/30 10:52:33;;;;;;;5.43;2.00;;;15.00;99.90;;;;;;5072327;28;20633;-44
2023/05/30 10:55:00;;;;;;;2.30;1.77;;;15.00;99.90;;;;;;5076587;28;20044;-41
2023/05/30 10:57:31;;;;;;;1.75;1.40;;;15.10;99.90;;;;;;5077109;28;20467;-40
2023/05/30 11:00:17;;;;;;;1.95;1.75;;;14.90;99.90;;;;;;5077389;28;20071;-40
2023/05/30 11:02:48;;;;;;;3.60;2.03;;;14.60;99.90;;;;;;5077009;28;20225;-41
2023/05/30 11:05:30;;;;;;;3.78;1.90;;;14.40;99.90;;;;;;5077791;28;20051;-37
2023/05/30 11:07:58;;;;;;;4.72;1.92;;;14.40;99.90;;;;;;5076964;28;20454;-40
2023/05/30 11:10:25;;;;;;;5.15;2.10;;;14.30;99.90;;;;;;5077407;28;20090;-38
2023/05/30 11:12:53;;;;;;;3.95;2.45;;;14.20;99.90;;;;;;5076236;28;20452;-38
2023/05/30 11:15:32;;;;;;;5.82;2.50;;;14.10;99.90;;;;;;5077045;28;20389;-40
2023/05/30 11:17:58;;;;;;;7.53;2.35;;;14.00;99.90;;;;;;5076604;28;20232;-39
2023/05/30 11:20:24;;;;;;;3.85;2.20;;;14.00;99.90;;;;;;5076420;28;20063;-38
2023/05/30 11:23:01;;;;;;;2.17;1.98;;;14.00;99.90;;;;;;5075650;28;20116;-39
2023/05/30 11:25:29;;;;;;;5.43;1.88;;;14.10;99.90;;;;;;5074355;28;20495;-39
2023/05/30 11:28:04;;;;;;;3.00;1.80;;;14.20;99.90;;;;;;5075919;28;20105;-38
2023/05/30 11:30:40;;;;;;;4.85;2.53;;;14.40;99.90;;;;;;5076298;28;20048;-38
2023/05/30 11:33:10;;;;;;;3.22;1.88;;;14.50;99.90;;;;;;5075804;28;20070;-38
2023/05/30 11:35:37;;;;;;;3.80;2.10;;;14.70;99.90;;;;;;5074875;28;20079;-40
2023/05/30 11:38:02;;;;;;;3.85;1.98;;;14.90;99.90;;;;;;5067791;28;20487;-38
2023/05/30 11:40:28;;;;;;;3.63;2.33;;;15.20;99.90;;;;;;5064097;28;20252;-41
2023/05/30 11:42:58;;;;;;;3.55;2.38;;;15.50;99.90;;;;;;5068949;28;20272;-43
2023/05/30 11:45:25;;;;;;;2.30;1.90;;;15.70;99.90;;;;;;5073410;28;20491;-41
2023/05/30 11:47:51;;;;;;;3.92;1.85;;;15.70;99.90;;;;;;5075318;28;20153;-37
2023/05/30 11:50:21;;;;;;;2.80;1.80;;;15.70;99.90;;;;;;5070000;28;20507;-38
2023/05/30 11:52:47;;;;;;;2.83;2.05;;;15.40;99.90;;;;;;5075268;28;20474;-40
2023/05/30 11:55:12;;;;;;;1.85;1.23;;;15.30;99.90;;;;;;5075838;28;20063;-40
2023/05/30 11:57:38;;;;;;;2.50;1.30;;;15.10;99.90;;;;;;5075262;28;20040;-41
2023/05/30 12:00:12;;;;;;;2.50;1.10;;;15.40;99.90;;;;;;5074140;28;20048;-40
2023/05/30 12:02:38;;;;;;;1.52;1.00;;;15.30;99.90;;;;;;5073091;28;20043;-40
2023/05/30 12:05:05;;;;;;;2.50;1.20;;;15.40;99.90;;;;;;5074613;28;20101;-38
2023/05/30 12:07:32;;;;;;;1.95;1.38;;;15.50;99.90;;;;;;5074832;28;20138;-38
2023/05/30 12:09:58;;;;;;;3.90;1.45;;;15.40;99.90;;;;;;5075261;28;20407;-40
2023/05/30 12:12:23;;;;;;;3.63;2.00;;;15.60;99.90;;;;;;5075881;28;20152;-43
2023/05/30 12:14:53;;;;;;;2.83;2.13;;;15.90;99.90;;;;;;5075376;28;20059;-39
2023/05/30 12:17:22;;;;;;;2.67;1.98;;;16.20;99.90;;;;;;5074742;28;20048;-38
2023/05/30 12:19:55;;;;;;;3.30;2.10;;;16.10;99.90;;;;;;5075179;28;20047;-39
2023/05/30 12:22:22;;;;;;;2.20;1.70;;;15.80;99.90;;;;;;5075751;28;20059;-37
2023/05/30 12:24:49;;;;;;;2.15;1.75;;;15.50;99.90;;;;;;5075735;28;20084;-42
2023/05/30 12:27:20;;;;;;;2.75;1.80;;;15.50;99.90;;;;;;5075697;28;20401;-40
2023/05/30 12:29:45;;;;;;;2.70;1.80;;;15.40;99.90;;;;;;5075155;28;20051;-43
2023/05/30 12:32:11;;;;;;;3.28;1.75;;;15.50;99.90;;;;;;5074425;28;20124;-38
2023/05/30 12:34:41;;;;;;;3.30;2.00;;;15.60;99.90;;;;;;5074972;28;20055;-39
2023/05/30 12:37:15;;;;;;;2.65;1.63;;;15.80;99.90;;;;;;5067979;28;20051;-39
2023/05/30 12:39:52;;;;;;;2.00;1.80;;;15.90;99.90;;;;;;5056998;28;20487;-39
2023/05/30 12:42:23;;;;;;;2.15;1.50;;;16.00;99.90;;;;;;5072993;28;20180;-39
2023/05/30 12:44:57;;;;;;;5.35;2.20;;;15.90;99.90;;;;;;5068755;28;20052;-41